sensor_id;sensor_type;location;lat;lon;timestamp;pressure;altitude;pressure_sealevel;temperature;humidity
11017;BME280;54687;50.800;6.772;2022-10-17T00:01:05;60979.72;;;-144.06;68.66
11017;BME280;54687;50.800;6.772;2022-10-17T00:03:33;60996.50;;;-144.06;68.74
11017;BME280;54687;50.800;6.772;2022-10-17T00:06:04;60975.53;;;-144.06;68.83
11017;BME280;54687;50.800;6.772;2022-10-17T00:08:31;60965.03;;;-144.06;68.87
11017;BME280;54687;50.800;6.772;2022-10-17T00:11:01;61030.03;;;-144.06;68.87
11017;BME280;54687;50.800;6.772;2022-10-17T00:13:29;60958.75;;;-144.06;69.06
11017;BME280;54687;50.800;6.772;2022-10-17T00:15:56;61027.94;;;-144.06;69.28
11017;BME280;54687;50.800;6.772;2022-10-17T00:18:23;60988.09;;;-144.06;69.41
11017;BME280;54687;50.800;6.772;2022-10-17T00:20:50;60979.72;;;-144.06;69.44
11017;BME280;54687;50.800;6.772;2022-10-17T00:23:18;61000.69;;;-144.06;69.48
11017;BME280;54687;50.800;6.772;2022-10-17T00:25:44;61036.31;;;-144.06;69.53
11017;BME280;54687;50.800;6.772;2022-10-17T00:28:13;60975.53;;;-144.06;69.61
11017;BME280;54687;50.800;6.772;2022-10-17T00:30:40;60958.75;;;-144.06;69.85
11017;BME280;54687;50.800;6.772;2022-10-17T00:33:07;61017.44;;;-144.06;69.77
11017;BME280;54687;50.800;6.772;2022-10-17T00:35:34;61000.69;;;-144.06;69.72
11017;BME280;54687;50.800;6.772;2022-10-17T00:38:00;61002.78;;;-144.06;69.74
11017;BME280;54687;50.800;6.772;2022-10-17T00:40:27;60950.38;;;-144.06;69.68
11017;BME280;54687;50.800;6.772;2022-10-17T00:42:54;61009.06;;;-144.06;69.72
11017;BME280;54687;50.800;6.772;2022-10-17T00:45:25;60946.19;;;-144.06;69.72
11017;BME280;54687;50.800;6.772;2022-10-17T00:47:56;60977.63;;;-144.06;69.85
11017;BME280;54687;50.800;6.772;2022-10-17T00:50:24;60962.94;;;-144.06;69.98
11017;BME280;54687;50.800;6.772;2022-10-17T00:52:52;60967.13;;;-144.06;69.80
11017;BME280;54687;50.800;6.772;2022-10-17T00:55:22;60969.22;;;-144.06;69.91
11017;BME280;54687;50.800;6.772;2022-10-17T00:57:49;60962.94;;;-144.06;69.92
11017;BME280;54687;50.800;6.772;2022-10-17T01:00:17;60979.72;;;-144.06;69.85
11017;BME280;54687;50.800;6.772;2022-10-17T01:02:46;60975.53;;;-144.06;69.82
11017;BME280;54687;50.800;6.772;2022-10-17T01:05:13;60958.75;;;-144.06;69.91
11017;BME280;54687;50.800;6.772;2022-10-17T01:07:41;60975.53;;;-144.06;69.92
11017;BME280;54687;50.800;6.772;2022-10-17T01:10:09;60946.19;;;-144.06;69.89
11017;BME280;54687;50.800;6.772;2022-10-17T01:12:44;60937.78;;;-144.06;69.92
11017;BME280;54687;50.800;6.772;2022-10-17T01:15:20;60996.50;;;-144.06;69.94
11017;BME280;54687;50.800;6.772;2022-10-17T01:18:00;60988.09;;;-144.06;69.85
11017;BME280;54687;50.800;6.772;2022-10-17T01:21:06;60967.13;;;-144.06;69.96
11017;BME280;54687;50.800;6.772;2022-10-17T01:24:07;60988.09;;;-144.06;69.93
11017;BME280;54687;50.800;6.772;2022-10-17T01:26:53;60996.50;;;-144.06;69.97
11017;BME280;54687;50.800;6.772;2022-10-17T01:29:34;60988.09;;;-144.06;69.94
11017;BME280;54687;50.800;6.772;2022-10-17T01:32:11;60956.66;;;-144.06;70.07
11017;BME280;54687;50.800;6.772;2022-10-17T01:34:44;60977.63;;;-144.06;70.05
11017;BME280;54687;50.800;6.772;2022-10-17T01:37:17;60969.22;;;-144.06;69.94
11017;BME280;54687;50.800;6.772;2022-10-17T01:39:48;60981.81;;;-144.06;69.83
11017;BME280;54687;50.800;6.772;2022-10-17T01:42:20;60996.50;;;-144.06;70.00
11017;BME280;54687;50.800;6.772;2022-10-17T01:44:52;60979.72;;;-144.06;70.04
11017;BME280;54687;50.800;6.772;2022-10-17T01:47:25;60969.22;;;-144.06;70.07
11017;BME280;54687;50.800;6.772;2022-10-17T01:49:56;60979.72;;;-144.06;70.07
11017;BME280;54687;50.800;6.772;2022-10-17T01:52:26;60973.44;;;-144.06;70.39
11017;BME280;54687;50.800;6.772;2022-10-17T01:54:57;60990.19;;;-144.06;70.15
11017;BME280;54687;50.800;6.772;2022-10-17T01:57:31;61000.69;;;-144.06;70.26
11017;BME280;54687;50.800;6.772;2022-10-17T02:00:02;60954.56;;;-144.06;70.36
11017;BME280;54687;50.800;6.772;2022-10-17T02:02:32;60983.91;;;-144.06;70.41
11017;BME280;54687;50.800;6.772;2022-10-17T02:05:00;60988.09;;;-144.06;70.58
11017;BME280;54687;50.800;6.772;2022-10-17T02:07:28;60992.28;;;-144.06;70.63
11017;BME280;54687;50.800;6.772;2022-10-17T02:09:55;60977.63;;;-144.06;70.67
11017;BME280;54687;50.800;6.772;2022-10-17T02:12:31;61030.03;;;-144.06;70.89
11017;BME280;54687;50.800;6.772;2022-10-17T02:15:09;60983.91;;;-144.06;70.91
11017;BME280;54687;50.800;6.772;2022-10-17T02:17:47;61002.78;;;-144.06;71.10
11017;BME280;54687;50.800;6.772;2022-10-17T02:20:23;61017.44;;;-144.06;71.17
11017;BME280;54687;50.800;6.772;2022-10-17T02:22:56;61011.16;;;-144.06;71.39
11017;BME280;54687;50.800;6.772;2022-10-17T02:25:32;60981.81;;;-144.06;71.30
11017;BME280;54687;50.800;6.772;2022-10-17T02:28:07;60988.09;;;-144.06;71.24
11017;BME280;54687;50.800;6.772;2022-10-17T02:30:39;61013.25;;;-144.06;71.00
11017;BME280;54687;50.800;6.772;2022-10-17T02:33:12;60975.53;;;-144.06;70.90
11017;BME280;54687;50.800;6.772;2022-10-17T02:35:46;60988.09;;;-144.06;70.99
11017;BME280;54687;50.800;6.772;2022-10-17T02:38:15;61013.25;;;-144.06;71.01
11017;BME280;54687;50.800;6.772;2022-10-17T02:40:45;60988.09;;;-144.06;70.87
11017;BME280;54687;50.800;6.772;2022-10-17T02:43:13;60969.22;;;-144.06;70.78
11017;BME280;54687;50.800;6.772;2022-10-17T02:45:40;60983.91;;;-144.06;70.78
11017;BME280;54687;50.800;6.772;2022-10-17T02:48:14;61000.69;;;-144.06;70.82
11017;BME280;54687;50.800;6.772;2022-10-17T02:50:50;61004.88;;;-144.06;70.73
11017;BME280;54687;50.800;6.772;2022-10-17T02:53:23;60998.59;;;-144.06;70.73
11017;BME280;54687;50.800;6.772;2022-10-17T02:55:55;61004.88;;;-144.06;70.88
11017;BME280;54687;50.800;6.772;2022-10-17T02:58:28;61000.69;;;-144.06;70.51
11017;BME280;54687;50.800;6.772;2022-10-17T03:00:57;60975.53;;;-144.06;70.60
11017;BME280;54687;50.800;6.772;2022-10-17T03:03:27;60975.53;;;-144.06;70.45
11017;BME280;54687;50.800;6.772;2022-10-17T03:05:54;60994.38;;;-144.06;70.44
11017;BME280;54687;50.800;6.772;2022-10-17T03:08:22;60996.50;;;-144.06;70.23
11017;BME280;54687;50.800;6.772;2022-10-17T03:10:49;60979.72;;;-144.06;70.33
11017;BME280;54687;50.800;6.772;2022-10-17T03:13:16;60992.28;;;-144.06;70.31
11017;BME280;54687;50.800;6.772;2022-10-17T03:15:42;60954.56;;;-144.06;70.37
11017;BME280;54687;50.800;6.772;2022-10-17T03:18:09;60950.38;;;-144.06;70.18
11017;BME280;54687;50.800;6.772;2022-10-17T03:20:37;60960.84;;;-144.06;70.20
11017;BME280;54687;50.800;6.772;2022-10-17T03:23:04;60988.09;;;-144.06;70.17
11017;BME280;54687;50.800;6.772;2022-10-17T03:25:30;61004.88;;;-144.06;70.14
11017;BME280;54687;50.800;6.772;2022-10-17T03:27:57;60967.13;;;-144.06;70.10
11017;BME280;54687;50.800;6.772;2022-10-17T03:30:24;60981.81;;;-144.06;70.09
11017;BME280;54687;50.800;6.772;2022-10-17T03:32:51;60971.34;;;-144.06;70.03
11017;BME280;54687;50.800;6.772;2022-10-17T03:35:18;60996.50;;;-144.06;69.82
11017;BME280;54687;50.800;6.772;2022-10-17T03:37:46;60969.22;;;-144.06;69.99
11017;BME280;54687;50.800;6.772;2022-10-17T03:40:12;60983.91;;;-144.06;69.80
11017;BME280;54687;50.800;6.772;2022-10-17T03:42:39;60979.72;;;-144.06;69.93
11017;BME280;54687;50.800;6.772;2022-10-17T03:45:07;61011.16;;;-144.06;69.67
11017;BME280;54687;50.800;6.772;2022-10-17T03:47:34;60983.91;;;-144.06;69.60
11017;BME280;54687;50.800;6.772;2022-10-17T03:50:00;60992.28;;;-144.06;69.32
11017;BME280;54687;50.800;6.772;2022-10-17T03:52:27;61004.88;;;-144.06;69.31
11017;BME280;54687;50.800;6.772;2022-10-17T03:54:55;61004.88;;;-144.06;69.00
11017;BME280;54687;50.800;6.772;2022-10-17T03:57:21;60971.34;;;-144.06;69.06
11017;BME280;54687;50.800;6.772;2022-10-17T03:59:49;60958.75;;;-144.06;68.87
11017;BME280;54687;50.800;6.772;2022-10-17T04:02:16;60992.28;;;-144.06;68.78
11017;BME280;54687;50.800;6.772;2022-10-17T04:04:42;60958.75;;;-144.06;69.04
11017;BME280;54687;50.800;6.772;2022-10-17T04:07:09;60994.38;;;-144.06;68.96
11017;BME280;54687;50.800;6.772;2022-10-17T04:09:35;60933.59;;;-144.06;69.04
11017;BME280;54687;50.800;6.772;2022-10-17T04:12:04;60965.03;;;-144.06;68.94
11017;BME280;54687;50.800;6.772;2022-10-17T04:14:31;60979.72;;;-144.06;68.86
11017;BME280;54687;50.800;6.772;2022-10-17T04:16:57;61017.44;;;-144.06;68.97
11017;BME280;54687;50.800;6.772;2022-10-17T04:19:24;60967.13;;;-144.06;69.03
11017;BME280;54687;50.800;6.772;2022-10-17T04:21:51;60962.94;;;-144.06;69.02
11017;BME280;54687;50.800;6.772;2022-10-17T04:24:17;60937.78;;;-144.06;68.98
11017;BME280;54687;50.800;6.772;2022-10-17T04:26:44;60988.09;;;-144.06;69.01
11017;BME280;54687;50.800;6.772;2022-10-17T04:29:12;60992.28;;;-144.06;69.18
11017;BME280;54687;50.800;6.772;2022-10-17T04:31:39;61000.69;;;-144.06;69.16
11017;BME280;54687;50.800;6.772;2022-10-17T04:34:06;60986.00;;;-144.06;69.13
11017;BME280;54687;50.800;6.772;2022-10-17T04:36:33;60954.56;;;-144.06;69.14
11017;BME280;54687;50.800;6.772;2022-10-17T04:39:00;60971.34;;;-144.06;69.23
11017;BME280;54687;50.800;6.772;2022-10-17T04:41:27;60983.91;;;-144.06;69.21
11017;BME280;54687;50.800;6.772;2022-10-17T04:43:53;61009.06;;;-144.06;69.23
11017;BME280;54687;50.800;6.772;2022-10-17T04:46:21;60958.75;;;-144.06;69.28
11017;BME280;54687;50.800;6.772;2022-10-17T04:48:48;60979.72;;;-144.06;69.31
11017;BME280;54687;50.800;6.772;2022-10-17T04:51:16;61042.59;;;-144.06;69.32
11017;BME280;54687;50.800;6.772;2022-10-17T04:53:44;61004.88;;;-144.06;69.21
11017;BME280;54687;50.800;6.772;2022-10-17T04:56:12;60981.81;;;-144.06;69.23
11017;BME280;54687;50.800;6.772;2022-10-17T04:58:40;60952.47;;;-144.06;69.16
11017;BME280;54687;50.800;6.772;2022-10-17T05:01:10;60950.38;;;-144.06;69.11
11017;BME280;54687;50.800;6.772;2022-10-17T05:03:38;60983.91;;;-144.06;69.07
11017;BME280;54687;50.800;6.772;2022-10-17T05:06:07;60954.56;;;-144.06;69.02
11017;BME280;54687;50.800;6.772;2022-10-17T05:08:34;61004.88;;;-144.06;69.10
11017;BME280;54687;50.800;6.772;2022-10-17T05:11:01;60996.50;;;-144.06;69.00
11017;BME280;54687;50.800;6.772;2022-10-17T05:13:28;60983.91;;;-144.06;68.94
11017;BME280;54687;50.800;6.772;2022-10-17T05:15:58;60988.09;;;-144.06;68.88
11017;BME280;54687;50.800;6.772;2022-10-17T05:18:26;61015.34;;;-144.06;68.74
11017;BME280;54687;50.800;6.772;2022-10-17T05:20:54;60988.09;;;-144.06;68.47
11017;BME280;54687;50.800;6.772;2022-10-17T05:23:21;61013.25;;;-144.06;68.67
11017;BME280;54687;50.800;6.772;2022-10-17T05:25:52;61000.69;;;-144.06;68.65
11017;BME280;54687;50.800;6.772;2022-10-17T05:28:20;60977.63;;;-144.06;68.65
11017;BME280;54687;50.800;6.772;2022-10-17T05:30:46;60986.00;;;-144.06;68.47
11017;BME280;54687;50.800;6.772;2022-10-17T05:33:13;61000.69;;;-144.06;68.56
11017;BME280;54687;50.800;6.772;2022-10-17T05:35:40;60992.28;;;-144.06;68.52
11017;BME280;54687;50.800;6.772;2022-10-17T05:38:08;60996.50;;;-144.06;68.40
11017;BME280;54687;50.800;6.772;2022-10-17T05:40:35;61002.78;;;-144.06;68.42
11017;BME280;54687;50.800;6.772;2022-10-17T05:43:03;60983.91;;;-144.06;68.45
11017;BME280;54687;50.800;6.772;2022-10-17T05:45:30;60962.94;;;-144.06;68.41
11017;BME280;54687;50.800;6.772;2022-10-17T05:47:56;60944.09;;;-144.06;68.45
11017;BME280;54687;50.800;6.772;2022-10-17T05:50:23;60992.28;;;-144.06;68.38
11017;BME280;54687;50.800;6.772;2022-10-17T05:52:52;60960.84;;;-144.06;68.47
11017;BME280;54687;50.800;6.772;2022-10-17T05:55:20;60986.00;;;-144.06;68.28
11017;BME280;54687;50.800;6.772;2022-10-17T05:57:48;60979.72;;;-144.06;68.33
11017;BME280;54687;50.800;6.772;2022-10-17T06:00:15;60983.91;;;-144.06;68.21
11017;BME280;54687;50.800;6.772;2022-10-17T06:02:42;60979.72;;;-144.06;68.17
11017;BME280;54687;50.800;6.772;2022-10-17T06:05:10;60996.50;;;-144.06;68.23
11017;BME280;54687;50.800;6.772;2022-10-17T06:07:37;60996.50;;;-144.06;68.14
11017;BME280;54687;50.800;6.772;2022-10-17T06:10:04;61021.63;;;-144.06;68.19
11017;BME280;54687;50.800;6.772;2022-10-17T06:12:33;60967.13;;;-144.06;68.01
11017;BME280;54687;50.800;6.772;2022-10-17T06:14:59;60988.09;;;-144.06;67.89
11017;BME280;54687;50.800;6.772;2022-10-17T06:17:26;60967.13;;;-144.06;67.75
11017;BME280;54687;50.800;6.772;2022-10-17T06:19:54;60981.81;;;-144.06;67.64
11017;BME280;54687;50.800;6.772;2022-10-17T06:22:21;61002.78;;;-144.06;67.38
11017;BME280;54687;50.800;6.772;2022-10-17T06:24:48;60992.28;;;-144.06;67.19
11017;BME280;54687;50.800;6.772;2022-10-17T06:27:16;61021.63;;;-144.06;66.97
11017;BME280;54687;50.800;6.772;2022-10-17T06:29:44;60979.72;;;-144.06;66.86
11017;BME280;54687;50.800;6.772;2022-10-17T06:32:11;60950.38;;;-144.06;66.75
11017;BME280;54687;50.800;6.772;2022-10-17T06:34:38;60941.97;;;-144.06;66.46
11017;BME280;54687;50.800;6.772;2022-10-17T06:37:06;60979.72;;;-144.06;66.42
11017;BME280;54687;50.800;6.772;2022-10-17T06:39:33;61004.88;;;-144.06;66.40
11017;BME280;54687;50.800;6.772;2022-10-17T06:42:00;60975.53;;;-144.06;66.22
11017;BME280;54687;50.800;6.772;2022-10-17T06:44:27;60990.19;;;-144.06;66.20
11017;BME280;54687;50.800;6.772;2022-10-17T06:46:57;61004.88;;;-144.06;65.98
11017;BME280;54687;50.800;6.772;2022-10-17T06:49:24;60965.03;;;-144.06;66.00
11017;BME280;54687;50.800;6.772;2022-10-17T06:51:51;60933.59;;;-144.06;65.77
11017;BME280;54687;50.800;6.772;2022-10-17T06:54:18;60958.75;;;-144.06;65.69
11017;BME280;54687;50.800;6.772;2022-10-17T06:56:44;60998.59;;;-144.06;65.30
11017;BME280;54687;50.800;6.772;2022-10-17T06:59:11;60946.19;;;-144.06;64.94
11017;BME280;54687;50.800;6.772;2022-10-17T07:01:39;60979.72;;;-144.06;64.87
11017;BME280;54687;50.800;6.772;2022-10-17T07:04:07;60921.03;;;-144.06;64.65
11017;BME280;54687;50.800;6.772;2022-10-17T07:06:34;60979.72;;;-144.06;64.33
11017;BME280;54687;50.800;6.772;2022-10-17T07:09:01;60937.78;;;-144.06;64.20
11017;BME280;54687;50.800;6.772;2022-10-17T07:11:32;60941.97;;;-144.06;63.81
11017;BME280;54687;50.800;6.772;2022-10-17T07:13:59;60935.69;;;-144.06;63.42
11017;BME280;54687;50.800;6.772;2022-10-17T07:16:25;60956.66;;;-144.06;63.27
11017;BME280;54687;50.800;6.772;2022-10-17T07:18:52;60952.47;;;-144.06;62.86
11017;BME280;54687;50.800;6.772;2022-10-17T07:21:21;60944.09;;;-144.06;62.45
11017;BME280;54687;50.800;6.772;2022-10-17T07:23:47;60946.19;;;-144.06;62.42
11017;BME280;54687;50.800;6.772;2022-10-17T07:26:16;60923.13;;;-144.06;62.23
11017;BME280;54687;50.800;6.772;2022-10-17T07:28:44;60929.41;;;-144.06;62.32
11017;BME280;54687;50.800;6.772;2022-10-17T07:31:13;60948.28;;;-144.06;62.32
11017;BME280;54687;50.800;6.772;2022-10-17T07:33:40;60925.22;;;-144.06;62.29
11017;BME280;54687;50.800;6.772;2022-10-17T07:36:07;60929.41;;;-144.06;62.34
11017;BME280;54687;50.800;6.772;2022-10-17T07:38:35;60916.84;;;-144.06;62.27
11017;BME280;54687;50.800;6.772;2022-10-17T07:41:04;60921.03;;;-144.06;62.12
11017;BME280;54687;50.800;6.772;2022-10-17T07:43:32;60900.06;;;-144.06;61.95
11017;BME280;54687;50.800;6.772;2022-10-17T07:45:59;60897.97;;;-144.06;61.88
11017;BME280;54687;50.800;6.772;2022-10-17T07:48:27;60914.72;;;-144.06;61.66
11017;BME280;54687;50.800;6.772;2022-10-17T07:50:54;60902.16;;;-144.06;61.51
11017;BME280;54687;50.800;6.772;2022-10-17T07:53:21;60900.06;;;-144.06;61.23
11017;BME280;54687;50.800;6.772;2022-10-17T07:55:48;60912.63;;;-144.06;60.96
11017;BME280;54687;50.800;6.772;2022-10-17T07:58:16;60900.06;;;-144.06;61.04
11017;BME280;54687;50.800;6.772;2022-10-17T08:00:43;60851.84;;;-144.06;60.69
11017;BME280;54687;50.800;6.772;2022-10-17T08:03:12;60929.41;;;-144.06;60.70
11017;BME280;54687;50.800;6.772;2022-10-17T08:05:39;60908.44;;;-144.06;60.62
11017;BME280;54687;50.800;6.772;2022-10-17T08:08:24;60851.84;;;-144.06;60.43
11017;BME280;54687;50.800;6.772;2022-10-17T08:11:13;60908.44;;;-144.06;60.12
11017;BME280;54687;50.800;6.772;2022-10-17T08:13:58;60923.13;;;-144.06;59.86
11017;BME280;54687;50.800;6.772;2022-10-17T08:16:44;60912.63;;;-144.06;59.87
11017;BME280;54687;50.800;6.772;2022-10-17T08:19:29;60872.81;;;-144.06;59.84
11017;BME280;54687;50.800;6.772;2022-10-17T08:22:14;60904.25;;;-144.06;59.64
11017;BME280;54687;50.800;6.772;2022-10-17T08:25:00;60868.63;;;-144.06;59.57
11017;BME280;54687;50.800;6.772;2022-10-17T08:27:46;60900.06;;;-144.06;59.46
11017;BME280;54687;50.800;6.772;2022-10-17T08:30:32;60925.22;;;-144.06;58.54
11017;BME280;54687;50.800;6.772;2022-10-17T08:33:18;60927.31;;;-144.06;58.52
11017;BME280;54687;50.800;6.772;2022-10-17T08:36:04;60864.44;;;-144.06;58.09
11017;BME280;54687;50.800;6.772;2022-10-17T08:38:50;60841.38;;;-144.06;57.81
11017;BME280;54687;50.800;6.772;2022-10-17T08:41:54;60858.13;;;-144.06;57.22
11017;BME280;54687;50.800;6.772;2022-10-17T08:44:52;60849.75;;;-144.06;57.16
11017;BME280;54687;50.800;6.772;2022-10-17T08:47:43;60853.94;;;-144.06;56.92
11017;BME280;54687;50.800;6.772;2022-10-17T08:50:38;60870.72;;;-144.06;56.88
11017;BME280;54687;50.800;6.772;2022-10-17T08:53:28;60866.53;;;-144.06;56.90
11017;BME280;54687;50.800;6.772;2022-10-17T08:56:18;60887.47;;;-144.06;56.60
11017;BME280;54687;50.800;6.772;2022-10-17T08:59:04;60893.78;;;-144.06;55.91
11017;BME280;54687;50.800;6.772;2022-10-17T09:02:00;60868.63;;;-144.06;56.20
11017;BME280;54687;50.800;6.772;2022-10-17T09:05:02;60860.25;;;-144.06;56.01
11017;BME280;54687;50.800;6.772;2022-10-17T09:08:01;60841.38;;;-144.06;56.27
11017;BME280;54687;50.800;6.772;2022-10-17T09:10:56;60841.38;;;-144.06;56.23
11017;BME280;54687;50.800;6.772;2022-10-17T09:13:51;60801.53;;;-144.06;56.05
11017;BME280;54687;50.800;6.772;2022-10-17T09:17:02;60906.34;;;-144.06;55.70
11017;BME280;54687;50.800;6.772;2022-10-17T09:19:58;60839.28;;;-144.06;55.50
11017;BME280;54687;50.800;6.772;2022-10-17T09:22:27;60812.03;;;-144.06;55.30
11017;BME280;54687;50.800;6.772;2022-10-17T09:24:58;60824.59;;;-144.06;54.96
11017;BME280;54687;50.800;6.772;2022-10-17T09:27:33;60866.53;;;-144.06;54.03
11017;BME280;54687;50.800;6.772;2022-10-17T09:30:16;60782.69;;;-144.06;54.08
11017;BME280;54687;50.800;6.772;2022-10-17T09:32:47;60805.75;;;-144.06;54.14
11017;BME280;54687;50.800;6.772;2022-10-17T09:35:14;60816.22;;;-144.06;53.70
11017;BME280;54687;50.800;6.772;2022-10-17T09:37:41;60744.94;;;-144.06;53.58
11017;BME280;54687;50.800;6.772;2022-10-17T09:40:17;60818.31;;;-144.06;53.10
11017;BME280;54687;50.800;6.772;2022-10-17T09:42:46;60805.75;;;-144.06;53.15
11017;BME280;54687;50.800;6.772;2022-10-17T09:45:16;60778.50;;;-144.06;53.05
11017;BME280;54687;50.800;6.772;2022-10-17T09:47:55;60751.25;;;-144.06;52.20
11017;BME280;54687;50.800;6.772;2022-10-17T09:50:25;60807.84;;;-144.06;51.88
11017;BME280;54687;50.800;6.772;2022-10-17T09:52:53;60801.53;;;-144.06;51.69
11017;BME280;54687;50.800;6.772;2022-10-17T09:55:36;60724.00;;;-144.06;50.25
11017;BME280;54687;50.800;6.772;2022-10-17T09:58:05;60749.16;;;-144.06;49.74
11017;BME280;54687;50.800;6.772;2022-10-17T10:00:35;60778.50;;;-144.06;50.08
11017;BME280;54687;50.800;6.772;2022-10-17T10:03:14;60732.38;;;-144.06;49.04
11017;BME280;54687;50.800;6.772;2022-10-17T10:05:44;60728.19;;;-144.06;49.65
11017;BME280;54687;50.800;6.772;2022-10-17T10:08:25;60715.59;;;-144.06;48.89
11017;BME280;54687;50.800;6.772;2022-10-17T10:10:56;60711.41;;;-144.06;48.50
11017;BME280;54687;50.800;6.772;2022-10-17T10:13:25;60721.91;;;-144.06;48.37
11017;BME280;54687;50.800;6.772;2022-10-17T10:15:52;60715.59;;;-144.06;48.23
11017;BME280;54687;50.800;6.772;2022-10-17T10:18:31;60728.19;;;-144.06;48.18
11017;BME280;54687;50.800;6.772;2022-10-17T10:21:05;60736.56;;;-144.06;48.32
11017;BME280;54687;50.800;6.772;2022-10-17T10:23:32;60736.56;;;-144.06;49.11
11017;BME280;54687;50.800;6.772;2022-10-17T10:26:02;60734.47;;;-144.06;49.35
11017;BME280;54687;50.800;6.772;2022-10-17T10:28:31;60742.84;;;-144.06;49.62
11017;BME280;54687;50.800;6.772;2022-10-17T10:31:01;60749.16;;;-144.06;49.44
11017;BME280;54687;50.800;6.772;2022-10-17T10:33:32;60761.72;;;-144.06;49.15
11017;BME280;54687;50.800;6.772;2022-10-17T10:36:01;60755.44;;;-144.06;49.22
11017;BME280;54687;50.800;6.772;2022-10-17T10:38:30;60732.38;;;-144.06;49.35
11017;BME280;54687;50.800;6.772;2022-10-17T10:41:02;60719.81;;;-144.06;48.57
11017;BME280;54687;50.800;6.772;2022-10-17T10:43:32;60711.41;;;-144.06;48.71
11017;BME280;54687;50.800;6.772;2022-10-17T10:46:01;60724.00;;;-144.06;49.06
11017;BME280;54687;50.800;6.772;2022-10-17T10:48:34;60730.28;;;-144.06;49.03
11017;BME280;54687;50.800;6.772;2022-10-17T10:51:04;60703.03;;;-144.06;48.70
11017;BME280;54687;50.800;6.772;2022-10-17T10:53:40;60761.72;;;-144.06;49.00
11017;BME280;54687;50.800;6.772;2022-10-17T10:56:12;60711.41;;;-144.06;49.29
11017;BME280;54687;50.800;6.772;2022-10-17T10:58:49;60740.75;;;-144.06;49.35
11017;BME280;54687;50.800;6.772;2022-10-17T11:47:50;60814.13;;;-144.06;52.85
11017;BME280;54687;50.800;6.772;2022-10-17T11:50:22;60809.94;;;-144.06;52.64
11017;BME280;54687;50.800;6.772;2022-10-17T11:52:51;60795.25;;;-144.06;53.04
11017;BME280;54687;50.800;6.772;2022-10-17T11:55:21;60843.47;;;-144.06;52.89
11017;BME280;54687;50.800;6.772;2022-10-17T11:57:58;60774.28;;;-144.06;53.15
11017;BME280;54687;50.800;6.772;2022-10-17T12:00:36;60824.59;;;-144.06;53.09
11017;BME280;54687;50.800;6.772;2022-10-17T12:03:21;60830.88;;;-144.06;53.17
11017;BME280;54687;50.800;6.772;2022-10-17T12:05:59;60858.13;;;-144.06;53.15
11017;BME280;54687;50.800;6.772;2022-10-17T12:08:33;60818.31;;;-144.06;53.22
11017;BME280;54687;50.800;6.772;2022-10-17T12:11:07;60828.78;;;-144.06;53.36
11017;BME280;54687;50.800;6.772;2022-10-17T12:13:47;60820.41;;;-144.06;53.33
11017;BME280;54687;50.800;6.772;2022-10-17T12:16:43;60830.88;;;-144.06;53.44
11017;BME280;54687;50.800;6.772;2022-10-17T12:19:23;60828.78;;;-144.06;53.50
11017;BME280;54687;50.800;6.772;2022-10-17T12:21:54;60778.50;;;-144.06;53.62
11017;BME280;54687;50.800;6.772;2022-10-17T12:24:30;60828.78;;;-144.06;53.98
11017;BME280;54687;50.800;6.772;2022-10-17T12:30:05;60830.88;;;-144.06;53.98
11017;BME280;54687;50.800;6.772;2022-10-17T12:32:32;60837.19;;;-144.06;53.90
11017;BME280;54687;50.800;6.772;2022-10-17T12:35:01;60816.22;;;-144.06;53.98
11017;BME280;54687;50.800;6.772;2022-10-17T12:38:13;60803.66;;;-144.06;53.82
11017;BME280;54687;50.800;6.772;2022-10-17T12:40:54;60805.75;;;-144.06;53.46
11017;BME280;54687;50.800;6.772;2022-10-17T12:43:36;60768.00;;;-144.06;53.42
11017;BME280;54687;50.800;6.772;2022-10-17T12:46:08;60795.25;;;-144.06;53.39
11017;BME280;54687;50.800;6.772;2022-10-17T12:49:35;60778.50;;;-144.06;52.90
11017;BME280;54687;50.800;6.772;2022-10-17T12:52:22;60786.88;;;-144.06;52.90
11017;BME280;54687;50.800;6.772;2022-10-17T12:54:56;60786.88;;;-144.06;53.27
11017;BME280;54687;50.800;6.772;2022-10-17T12:57:29;60812.03;;;-144.06;53.24
11017;BME280;54687;50.800;6.772;2022-10-17T12:59:57;60818.31;;;-144.06;53.33
11017;BME280;54687;50.800;6.772;2022-10-17T13:02:27;60786.88;;;-144.06;53.08
11017;BME280;54687;50.800;6.772;2022-10-17T13:05:04;60782.69;;;-144.06;53.00
11017;BME280;54687;50.800;6.772;2022-10-17T13:07:35;60791.06;;;-144.06;52.78
11017;BME280;54687;50.800;6.772;2022-10-17T13:10:03;60833.00;;;-144.06;52.84
11017;BME280;54687;50.800;6.772;2022-10-17T13:12:33;60843.47;;;-144.06;52.61
11017;BME280;54687;50.800;6.772;2022-10-17T13:15:03;60818.31;;;-144.06;52.46
11017;BME280;54687;50.800;6.772;2022-10-17T13:17:32;60807.84;;;-144.06;52.44
11017;BME280;54687;50.800;6.772;2022-10-17T13:19:59;60824.59;;;-144.06;52.00
11017;BME280;54687;50.800;6.772;2022-10-17T13:22:27;60803.66;;;-144.06;51.53
11017;BME280;54687;50.800;6.772;2022-10-17T13:25:08;60805.75;;;-144.06;51.40
11017;BME280;54687;50.800;6.772;2022-10-17T13:27:36;60772.19;;;-144.06;51.66
11017;BME280;54687;50.800;6.772;2022-10-17T13:30:23;60837.19;;;-144.06;51.49
11017;BME280;54687;50.800;6.772;2022-10-17T13:32:51;60799.44;;;-144.06;51.70
11017;BME280;54687;50.800;6.772;2022-10-17T13:35:24;60814.13;;;-144.06;51.47
11017;BME280;54687;50.800;6.772;2022-10-17T13:37:52;60828.78;;;-144.06;51.47
11017;BME280;54687;50.800;6.772;2022-10-17T13:40:23;60807.84;;;-144.06;51.24
11017;BME280;54687;50.800;6.772;2022-10-17T13:42:51;60786.88;;;-144.06;51.44
11017;BME280;54687;50.800;6.772;2022-10-17T13:45:26;60828.78;;;-144.06;51.28
11017;BME280;54687;50.800;6.772;2022-10-17T13:47:53;60784.78;;;-144.06;51.30
11017;BME280;54687;50.800;6.772;2022-10-17T13:50:26;60782.69;;;-144.06;51.03
11017;BME280;54687;50.800;6.772;2022-10-17T13:53:17;60828.78;;;-144.06;50.88
11017;BME280;54687;50.800;6.772;2022-10-17T13:55:57;60797.34;;;-144.06;50.95